Time;durP1;ratioP1;P1;durP2;ratioP2;P2;SDS_P1;SDS_P2;PMS_P1;PMS_P2;Temp;Humidity;BMP_temperature;BMP_pressure;BME280_temperature;BME280_humidity;BME280_pressure;Samples;Min_cycle;Max_cycle;Signal;HPM_P1;HPM_P2
2023/08/21 00:00:45;;;;;;;3.83;1.50;;;;;;;-145.18;100.00;46644.78;5027267;28;20033;-58
2023/08/21 00:03:11;;;;;;;4.23;1.40;;;;;;;-145.18;100.00;46642.81;5030073;28;20025;-58
2023/08/21 00:05:36;;;;;;;3.83;1.63;;;;;;;-145.18;100.00;46679.94;5027590;28;20025;-58
2023/08/21 00:08:02;;;;;;;8.30;1.50;;;;;;;-145.18;100.00;46642.81;5030497;28;20397;-58
2023/08/21 00:10:29;;;;;;;6.40;1.70;;;;;;;-145.18;100.00;46640.88;5029678;28;20029;-59
2023/08/21 00:12:55;;;;;;;3.23;1.33;;;;;;;-145.18;100.00;46640.88;5029733;28;20029;-58
2023/08/21 00:15:20;;;;;;;4.53;1.63;;;;;;;-145.18;100.00;46660.41;5009972;28;20030;-58
2023/08/21 00:17:45;;;;;;;3.87;1.60;;;;;;;-145.18;100.00;46660.41;5027590;28;20049;-59
2023/08/21 00:20:11;;;;;;;4.77;1.67;;;;;;;-145.18;100.00;46676.03;5009393;28;20043;-59
2023/08/21 00:22:37;;;;;;;3.57;1.30;;;;;;;-145.18;100.00;46660.41;5030092;28;20040;-59
2023/08/21 00:25:04;;;;;;;6.90;1.87;;;;;;;-145.18;100.00;46660.41;5027146;28;20037;-59
2023/08/21 00:27:29;;;;;;;4.77;1.83;;;;;;;-145.18;100.00;46679.94;5028760;28;20116;-59
2023/08/21 00:29:55;;;;;;;4.07;2.00;;;;;;;-145.18;100.00;46676.03;5029133;28;20117;-59
2023/08/21 00:32:20;;;;;;;7.57;2.10;;;;;;;-145.18;100.00;46660.41;5030221;28;20037;-59
2023/08/21 00:34:45;;;;;;;4.57;2.00;;;;;;;-145.18;100.00;46638.91;5028779;28;20514;-59
2023/08/21 00:37:11;;;;;;;2.73;1.70;;;;;;;-145.18;100.00;46660.41;5030049;28;20025;-59
2023/08/21 00:39:36;;;;;;;4.40;1.33;;;;;;;-145.18;100.00;46677.97;5029930;28;20050;-59
2023/08/21 00:42:02;;;;;;;7.07;1.80;;;;;;;-145.18;100.00;46660.41;5028723;28;20037;-59
2023/08/21 00:44:27;;;;;;;8.17;2.20;;;;;;;-145.18;100.00;46660.41;5030406;28;20037;-59
2023/08/21 00:46:53;;;;;;;4.50;1.83;;;;;;;-145.18;100.00;46660.41;5028222;28;20027;-58
2023/08/21 00:49:18;;;;;;;6.83;1.60;;;;;;;-145.18;100.00;46660.41;5029012;28;20044;-59
2023/08/21 00:51:44;;;;;;;5.20;1.57;;;;;;;-145.18;100.00;46638.91;5027716;28;20154;-59
2023/08/21 00:54:10;;;;;;;6.50;1.70;;;;;;;-145.18;100.00;46677.97;5025640;28;20025;-59
2023/08/21 00:56:36;;;;;;;5.83;1.93;;;;;;;-145.18;100.00;46660.41;5030428;28;20025;-59
2023/08/21 00:59:01;;;;;;;3.97;2.53;;;;;;;-145.18;100.00;46660.41;5029492;28;20025;-59
2023/08/21 01:01:28;;;;;;;6.13;1.83;;;;;;;-145.18;100.00;46660.41;5029195;28;20096;-58
2023/08/21 01:03:53;;;;;;;6.83;2.13;;;;;;;-145.18;100.00;46660.41;5028030;28;20025;-58
2023/08/21 01:06:20;;;;;;;5.23;1.90;;;;;;;-145.18;100.00;46660.41;5030549;28;20109;-59
2023/08/21 01:09:00;;;;;;;2.87;1.73;;;;;;;-145.18;100.00;46660.41;5028891;28;20030;-59
2023/08/21 01:11:50;;;;;;;5.13;2.53;;;;;;;-145.18;100.00;46660.41;5032228;28;20033;-58
2023/08/21 01:14:21;;;;;;;6.07;2.17;;;;;;;-145.18;100.00;46660.41;5031823;28;20025;-59
2023/08/21 01:16:50;;;;;;;7.63;2.00;;;;;;;-145.18;100.00;46660.41;5029463;28;20026;-58
2023/08/21 01:19:31;;;;;;;3.17;1.53;;;;;;;-145.18;100.00;46660.41;5031431;28;20040;-59
2023/08/21 01:21:58;;;;;;;9.13;2.03;;;;;;;-145.18;100.00;46660.41;5030091;28;20428;-59
2023/08/21 01:24:24;;;;;;;4.43;1.87;;;;;;;-145.18;100.00;46660.41;5032500;28;20041;-59
2023/08/21 01:26:49;;;;;;;5.37;1.90;;;;;;;-145.18;100.00;46660.41;5029682;28;20033;-59
2023/08/21 01:29:15;;;;;;;6.97;1.93;;;;;;;-145.18;100.00;46660.41;5029165;28;20057;-59
2023/08/21 01:31:44;;;;;;;7.80;2.07;;;;;;;-145.18;100.00;46660.41;5032016;28;20112;-59
2023/08/21 01:34:13;;;;;;;7.17;2.43;;;;;;;-145.18;100.00;46660.41;5030331;28;20037;-59
2023/08/21 01:36:39;;;;;;;4.77;1.73;;;;;;;-145.18;100.00;46660.41;5030027;28;20072;-59
2023/08/21 01:39:05;;;;;;;6.90;1.90;;;;;;;-145.18;100.00;46660.41;5033321;28;20080;-59
2023/08/21 01:41:30;;;;;;;5.33;2.00;;;;;;;-145.18;100.00;46660.41;5032042;28;20065;-59
2023/08/21 01:43:55;;;;;;;4.87;2.03;;;;;;;-145.18;100.00;46660.41;5030754;28;20037;-59
2023/08/21 01:46:21;;;;;;;4.77;1.50;;;;;;;-145.18;100.00;46660.41;5027920;28;20041;-59
2023/08/21 01:48:47;;;;;;;5.93;1.90;;;;;;;-145.18;100.00;46660.41;5031959;28;20390;-58
2023/08/21 01:51:12;;;;;;;5.77;1.80;;;;;;;-145.18;100.00;46660.41;5029910;28;20034;-59
2023/08/21 01:53:37;;;;;;;5.63;2.10;;;;;;;-145.18;100.00;46660.41;5031912;28;20037;-59
2023/08/21 01:56:03;;;;;;;4.20;2.07;;;;;;;-145.18;100.00;46660.41;5030497;28;20030;-58
2023/08/21 01:58:28;;;;;;;4.87;2.00;;;;;;;-145.18;100.00;46660.41;5030606;28;20036;-59
2023/08/21 02:00:54;;;;;;;6.07;1.93;;;;;;;-145.18;100.00;46660.41;5031505;28;20029;-59
2023/08/21 02:03:19;;;;;;;5.07;1.80;;;;;;;-145.18;100.00;46660.41;5031259;28;20033;-59
2023/08/21 02:05:44;;;;;;;5.70;2.00;;;;;;;-145.18;100.00;46660.41;5027589;28;20554;-59
2023/08/21 02:08:12;;;;;;;8.03;2.00;;;;;;;-145.18;100.00;46660.41;5030097;28;20459;-59
2023/08/21 02:10:38;;;;;;;4.63;2.10;;;;;;;-145.18;100.00;46660.41;5029989;28;20531;-59
2023/08/21 02:13:03;;;;;;;7.50;1.90;;;;;;;-145.18;100.00;46660.41;5032674;28;20060;-59
2023/08/21 02:15:29;;;;;;;4.40;1.53;;;;;;;-145.18;100.00;46660.41;5032581;28;20120;-59
2023/08/21 02:17:54;;;;;;;5.73;2.13;;;;;;;-145.18;100.00;46660.41;5031640;28;20040;-59
2023/08/21 02:20:20;;;;;;;4.70;1.60;;;;;;;-145.18;100.00;46660.41;5030920;28;20600;-59
2023/08/21 02:22:45;;;;;;;4.43;2.07;;;;;;;-145.18;100.00;46660.41;5013367;28;20041;-59
2023/08/21 02:25:10;;;;;;;6.70;1.50;;;;;;;-145.18;100.00;46660.41;5031274;28;20029;-59
2023/08/21 02:27:36;;;;;;;8.57;1.80;;;;;;;-145.18;100.00;46660.41;5028124;28;20050;-58
2023/08/21 02:30:02;;;;;;;4.90;1.87;;;;;;;-145.18;100.00;46660.41;5032323;28;20033;-58
2023/08/21 02:32:27;;;;;;;3.80;1.77;;;;;;;-145.18;100.00;46660.41;5029928;28;20064;-59
2023/08/21 02:34:52;;;;;;;7.57;2.10;;;;;;;-145.18;100.00;46660.41;5030445;28;20481;-59
2023/08/21 02:37:18;;;;;;;4.80;1.83;;;;;;;-145.18;100.00;46660.41;5031538;28;20136;-59
2023/08/21 02:39:43;;;;;;;9.23;2.20;;;;;;;-145.18;100.00;46660.41;5029880;28;20049;-58
2023/08/21 02:42:08;;;;;;;4.53;1.47;;;;;;;-145.18;100.00;46660.41;5031499;28;20044;-58
2023/08/21 02:44:34;;;;;;;2.97;1.57;;;;;;;-145.18;100.00;46660.41;5029895;28;20721;-58
2023/08/21 02:46:59;;;;;;;5.10;1.70;;;;;;;-145.18;100.00;46660.41;5028064;28;20052;-59
2023/08/21 02:49:24;;;;;;;3.27;1.90;;;;;;;-145.18;100.00;46660.41;5029726;28;20056;-59
2023/08/21 02:51:50;;;;;;;7.50;1.53;;;;;;;-145.18;100.00;46660.41;5030697;28;20052;-59
2023/08/21 02:54:15;;;;;;;5.30;1.70;;;;;;;-145.18;100.00;46660.41;5030382;28;20033;-59
2023/08/21 02:56:40;;;;;;;4.10;1.73;;;;;;;-145.18;100.00;46660.41;5030984;28;20108;-59
2023/08/21 02:59:06;;;;;;;8.50;1.90;;;;;;;-145.18;100.00;46660.41;5030301;28;20036;-59
2023/08/21 03:01:31;;;;;;;5.17;2.30;;;;;;;-145.18;100.00;46660.41;5031002;28;20534;-59
2023/08/21 03:03:56;;;;;;;6.43;2.00;;;;;;;-145.18;100.00;46660.41;5030120;28;20060;-59
2023/08/21 03:06:22;;;;;;;8.60;2.10;;;;;;;-145.18;100.00;46660.41;5028910;28;20061;-59
2023/08/21 03:08:47;;;;;;;5.90;1.93;;;;;;;-145.18;100.00;46660.41;5027611;28;20045;-58
2023/08/21 03:11:12;;;;;;;6.83;1.80;;;;;;;-145.18;100.00;46660.41;5029620;28;20026;-58
2023/08/21 03:13:39;;;;;;;5.73;1.40;;;;;;;-145.18;100.00;46656.50;5029640;28;20529;-58
2023/08/21 03:16:04;;;;;;;3.63;1.80;;;;;;;-145.18;100.00;46660.41;5029542;28;20037;-59
2023/08/21 03:18:31;;;;;;;4.23;1.93;;;;;;;-145.18;100.00;46660.41;5028773;28;20130;-58
2023/08/21 03:20:57;;;;;;;2.33;1.50;;;;;;;-145.18;100.00;46660.41;5030866;28;20025;-58
2023/08/21 03:23:22;;;;;;;7.30;2.00;;;;;;;-145.18;100.00;46660.41;5029456;28;20041;-59
2023/08/21 03:25:48;;;;;;;4.73;1.80;;;;;;;-145.18;100.00;46660.41;5030571;28;20051;-58
2023/08/21 03:28:13;;;;;;;6.20;1.60;;;;;;;-145.18;100.00;46660.41;5030256;28;20030;-59
2023/08/21 03:30:40;;;;;;;4.30;1.67;;;;;;;-145.18;100.00;46660.41;5027288;28;20045;-59
2023/08/21 03:33:05;;;;;;;3.33;1.43;;;;;;;-145.18;100.00;46660.41;5028186;28;20040;-58
2023/08/21 03:35:31;;;;;;;2.00;1.40;;;;;;;-145.18;100.00;46660.41;5025271;28;20045;-58
2023/08/21 03:37:56;;;;;;;5.57;1.30;;;;;;;-145.18;100.00;46660.41;5029568;28;20025;-59
2023/08/21 03:40:21;;;;;;;6.53;1.63;;;;;;;-145.18;100.00;46660.41;5028399;28;20072;-58
2023/08/21 03:42:47;;;;;;;2.70;1.80;;;;;;;-145.18;100.00;46660.41;5028767;28;20036;-59
2023/08/21 03:45:12;;;;;;;5.27;1.80;;;;;;;-145.18;100.00;46660.41;5028646;28;20038;-59
2023/08/21 03:47:37;;;;;;;8.23;2.03;;;;;;;-145.18;100.00;46660.41;5030294;28;20041;-59
2023/08/21 03:50:03;;;;;;;9.07;2.30;;;;;;;-145.18;100.00;46660.41;5027857;28;20049;-59
2023/08/21 03:52:28;;;;;;;5.50;2.20;;;;;;;-145.18;100.00;46660.41;5028314;28;20090;-59
2023/08/21 03:54:54;;;;;;;5.40;1.87;;;;;;;-145.18;100.00;46660.41;5028495;28;20053;-59
2023/08/21 03:57:19;;;;;;;5.57;2.37;;;;;;;-145.18;100.00;46660.41;5029419;28;20041;-59
2023/08/21 03:59:45;;;;;;;5.10;2.57;;;;;;;-145.18;100.00;46660.41;5028932;28;20732;-59
2023/08/21 04:02:10;;;;;;;12.07;3.20;;;;;;;-145.18;100.00;46660.41;5028882;28;20037;-59
2023/08/21 04:04:35;;;;;;;4.73;1.77;;;;;;;-145.18;100.00;46660.41;5030240;28;20528;-59
2023/08/21 04:07:01;;;;;;;9.20;2.27;;;;;;;-145.18;100.00;46660.41;5012074;28;20025;-58
2023/08/21 04:09:26;;;;;;;5.70;3.20;;;;;;;-145.18;100.00;46660.41;5028530;28;20474;-58
2023/08/21 04:11:52;;;;;;;7.30;1.70;;;;;;;-145.18;100.00;46660.41;5028197;28;20040;-58
2023/08/21 04:14:17;;;;;;;4.87;1.60;;;;;;;-145.18;100.00;46656.50;5026726;28;20033;-58
2023/08/21 04:16:42;;;;;;;7.60;2.00;;;;;;;-145.18;100.00;46658.44;5029133;28;20022;-59
2023/08/21 04:19:08;;;;;;;3.00;1.60;;;;;;;-145.18;100.00;46660.41;5028045;28;20184;-58
2023/08/21 04:21:33;;;;;;;9.33;2.53;;;;;;;-145.18;100.00;46656.50;5030053;28;20037;-58
2023/08/21 04:23:59;;;;;;;5.30;2.50;;;;;;;-145.18;100.00;46652.59;5026823;28;20021;-59
2023/08/21 04:26:25;;;;;;;4.07;2.20;;;;;;;-145.18;100.00;46652.59;5007866;28;20098;-58
2023/08/21 04:28:50;;;;;;;4.03;1.40;;;;;;;-145.18;100.00;46654.53;5026691;28;20029;-58
2023/08/21 04:31:16;;;;;;;6.10;2.10;;;;;;;-145.18;100.00;46652.59;5028722;28;20041;-59
2023/08/21 04:33:41;;;;;;;4.73;1.70;;;;;;;-145.18;100.00;46640.88;5028149;28;20071;-59
2023/08/21 04:36:06;;;;;;;3.73;1.40;;;;;;;-145.18;100.00;46642.81;5025666;28;20026;-59
2023/08/21 04:38:32;;;;;;;1.97;1.60;;;;;;;-145.18;100.00;46652.59;5028106;28;20512;-59
2023/08/21 04:41:06;;;;;;;8.20;1.70;;;;;;;-145.18;100.00;46652.59;5028909;28;20069;-59
2023/08/21 04:43:32;;;;;;;5.00;1.87;;;;;;;-145.18;100.00;46654.53;5028961;28;20022;-59
2023/08/21 04:45:57;;;;;;;4.53;2.10;;;;;;;-145.18;100.00;46642.81;5028791;28;20036;-59
2023/08/21 04:48:22;;;;;;;4.97;1.97;;;;;;;-145.18;100.00;46652.59;5034069;28;20056;-59
2023/08/21 04:50:48;;;;;;;4.73;1.93;;;;;;;-145.18;100.00;46656.50;5034032;28;20072;-58
2023/08/21 04:53:13;;;;;;;5.93;1.80;;;;;;;-145.18;100.00;46652.59;5033693;28;20029;-58
2023/08/21 04:55:42;;;;;;;6.37;1.93;;;;;;;-145.18;100.00;46650.63;5031318;28;20515;-59
2023/08/21 04:58:08;;;;;;;7.57;2.07;;;;;;;-145.18;100.00;46652.59;5021143;28;20022;-59
2023/08/21 05:00:33;;;;;;;3.90;1.80;;;;;;;-145.18;100.00;46654.53;5029427;28;20026;-59
2023/08/21 05:02:59;;;;;;;6.40;2.53;;;;;;;-145.18;100.00;46654.53;5032478;28;20104;-59
2023/08/21 05:05:24;;;;;;;5.27;2.17;;;;;;;-145.18;100.00;46656.50;5030214;28;20048;-59
2023/08/21 05:07:50;;;;;;;10.80;3.57;;;;;;;-145.18;100.00;46654.53;5034026;28;20018;-59
2023/08/21 05:10:15;;;;;;;4.93;2.63;;;;;;;-145.18;100.00;46660.41;5032961;28;20040;-59
2023/08/21 05:12:41;;;;;;;5.30;2.93;;;;;;;-145.18;100.00;46656.50;5033837;28;20090;-59
2023/08/21 05:15:07;;;;;;;7.30;2.63;;;;;;;-145.18;100.00;46660.41;5032099;28;20032;-59
2023/08/21 05:17:32;;;;;;;6.63;2.97;;;;;;;-145.18;100.00;46654.53;5034009;28;20021;-59
2023/08/21 05:19:58;;;;;;;5.47;2.33;;;;;;;-145.18;100.00;46656.50;5031166;28;20492;-59
2023/08/21 05:22:23;;;;;;;3.20;2.07;;;;;;;-145.18;100.00;46654.53;5033397;28;20030;-61
2023/08/21 05:24:49;;;;;;;6.63;1.80;;;;;;;-145.18;100.00;46654.53;5031497;28;20032;-61
2023/08/21 05:27:14;;;;;;;4.83;2.67;;;;;;;-145.18;100.00;46656.50;5028841;28;20033;-61
2023/08/21 05:29:40;;;;;;;6.43;2.20;;;;;;;-145.18;100.00;46652.59;5024846;28;20029;-61
2023/08/21 05:32:05;;;;;;;6.80;2.60;;;;;;;-145.18;100.00;46656.50;4998410;28;20105;-61
2023/08/21 05:34:31;;;;;;;8.03;2.27;;;;;;;-145.18;100.00;46658.44;5023905;28;20032;-61
2023/08/21 05:36:57;;;;;;;6.10;2.47;;;;;;;-145.18;100.00;46660.41;5021251;28;20359;-61
2023/08/21 05:39:22;;;;;;;5.40;2.30;;;;;;;-145.18;100.00;46658.44;5030863;28;20065;-61
2023/08/21 05:41:47;;;;;;;6.93;2.97;;;;;;;-145.18;100.00;46656.50;5021806;28;20516;-61
2023/08/21 05:44:13;;;;;;;4.63;2.10;;;;;;;-145.18;100.00;46656.50;5024067;28;20116;-61
2023/08/21 05:46:38;;;;;;;6.87;2.40;;;;;;;-145.18;100.00;46656.50;5020573;28;20025;-61
2023/08/21 05:49:04;;;;;;;7.40;2.60;;;;;;;-145.18;100.00;46658.44;5025435;28;20112;-61
2023/08/21 05:51:29;;;;;;;8.50;2.90;;;;;;;-145.18;100.00;46656.50;5022046;28;20040;-61
2023/08/21 05:53:55;;;;;;;5.37;2.07;;;;;;;-145.18;100.00;46656.50;5022775;28;20021;-61
2023/08/21 05:56:20;;;;;;;5.60;2.43;;;;;;;-145.18;100.00;46621.31;5034010;28;20037;-61
2023/08/21 05:58:45;;;;;;;13.53;4.00;;;;;;;-145.18;100.00;46658.44;5015310;28;20044;-61
2023/08/21 06:01:11;;;;;;;10.67;3.40;;;;;;;-145.18;100.00;46660.41;5033784;28;20104;-61
2023/08/21 06:03:37;;;;;;;12.13;3.53;;;;;;;-145.18;100.00;46660.41;5033190;28;20076;-61
2023/08/21 06:06:03;;;;;;;9.67;3.57;;;;;;;-145.18;100.00;46660.41;5032228;28;20056;-61
2023/08/21 06:08:28;;;;;;;6.50;3.33;;;;;;;-145.18;100.00;46660.41;5032174;28;20026;-61
2023/08/21 06:10:53;;;;;;;7.47;3.80;;;;;;;-145.18;100.00;46660.41;5024468;28;20069;-61
2023/08/21 06:13:19;;;;;;;9.00;3.40;;;;;;;-145.18;100.00;46660.41;5028633;28;20050;-60
2023/08/21 06:15:47;;;;;;;8.67;3.67;;;;;;;-145.18;100.00;46660.41;5033302;28;20088;-61
2023/08/21 06:18:14;;;;;;;9.90;3.50;;;;;;;-145.18;100.00;46627.19;5033125;28;20552;-61
2023/08/21 06:20:42;;;;;;;12.33;3.70;;;;;;;-145.18;100.00;46623.28;5033606;28;20037;-61
2023/08/21 06:23:07;;;;;;;9.00;4.10;;;;;;;-145.18;100.00;46627.19;5033172;28;20032;-61
2023/08/21 06:25:33;;;;;;;7.60;4.20;;;;;;;-145.18;100.00;46625.22;5031842;28;20034;-62
2023/08/21 06:27:58;;;;;;;9.37;4.53;;;;;;;-145.18;100.00;46625.22;5025420;28;20056;-61
2023/08/21 06:30:24;;;;;;;8.00;3.07;;;;;;;-145.18;100.00;46629.13;5025753;28;20034;-61
2023/08/21 06:32:50;;;;;;;7.70;3.40;;;;;;;-145.18;100.00;46627.19;5023147;28;20061;-61
2023/08/21 06:35:16;;;;;;;6.97;3.17;;;;;;;-145.18;100.00;46631.09;5018423;28;20103;-61
2023/08/21 06:37:41;;;;;;;8.97;3.33;;;;;;;-145.18;100.00;46631.09;5021983;28;20025;-61
2023/08/21 06:40:07;;;;;;;10.67;3.27;;;;;;;-145.18;100.00;46631.09;5021373;28;20058;-61
2023/08/21 06:42:32;;;;;;;4.97;2.60;;;;;;;-145.18;100.00;46631.09;5021887;28;20033;-61
2023/08/21 06:44:58;;;;;;;7.43;2.80;;;;;;;-145.18;100.00;46629.13;5029564;28;20034;-61
2023/08/21 06:47:23;;;;;;;9.60;3.00;;;;;;;-145.18;100.00;46629.13;5022067;28;20152;-61
2023/08/21 06:49:49;;;;;;;6.13;3.17;;;;;;;-145.18;100.00;46631.09;5021900;28;20168;-61
2023/08/21 06:52:14;;;;;;;5.20;3.47;;;;;;;-145.18;100.00;46633.06;5020755;28;20026;-61
2023/08/21 06:54:39;;;;;;;8.80;3.10;;;;;;;-145.18;100.00;46636.94;5022511;28;20076;-61
2023/08/21 06:57:05;;;;;;;6.50;2.97;;;;;;;-145.18;100.00;46635.00;5019922;28;20397;-61
2023/08/21 06:59:30;;;;;;;5.60;2.60;;;;;;;-145.18;100.00;46644.78;5023241;28;20079;-61
2023/08/21 07:01:55;;;;;;;3.97;2.10;;;;;;;-145.18;100.00;46648.69;5019264;28;20030;-61
2023/08/21 07:04:21;;;;;;;5.30;2.20;;;;;;;-145.18;100.00;46658.44;5023161;28;20424;-61
2023/08/21 07:06:46;;;;;;;6.23;2.20;;;;;;;-145.18;100.00;46654.53;5026218;28;20038;-61
2023/08/21 07:09:12;;;;;;;5.17;2.07;;;;;;;-145.18;100.00;46652.59;5018232;28;20466;-61
2023/08/21 07:11:37;;;;;;;11.90;2.53;;;;;;;-145.18;100.00;46664.31;5025122;28;20033;-61
2023/08/21 07:14:03;;;;;;;8.50;2.10;;;;;;;-145.18;100.00;46652.59;5020299;28;20104;-61
2023/08/21 07:16:28;;;;;;;4.63;2.30;;;;;;;-145.18;100.00;46658.44;5016563;28;20044;-61
2023/08/21 07:18:54;;;;;;;8.63;2.80;;;;;;;-145.18;100.00;46654.53;5029133;28;20385;-61
2023/08/21 07:21:19;;;;;;;6.73;1.47;;;;;;;-145.18;100.00;46658.44;5014091;28;20033;-61
2023/08/21 07:23:44;;;;;;;6.63;2.00;;;;;;;-145.18;100.00;46662.34;5019188;28;20556;-61
2023/08/21 07:26:10;;;;;;;8.40;2.20;;;;;;;-145.18;100.00;46662.34;5031016;28;20171;-61
2023/08/21 07:28:35;;;;;;;6.33;1.67;;;;;;;-145.18;100.00;46656.50;5029390;28;20034;-61
2023/08/21 07:31:01;;;;;;;5.10;1.70;;;;;;;-145.18;100.00;46664.31;5026181;28;20059;-61
2023/08/21 07:33:27;;;;;;;11.50;1.97;;;;;;;-145.18;100.00;46664.31;5031032;28;20066;-61
2023/08/21 07:36:05;;;;;;;8.07;1.80;;;;;;;-145.18;100.00;46672.13;5030834;28;20033;-61
2023/08/21 07:38:32;;;;;;;4.37;1.43;;;;;;;-145.18;100.00;46672.13;5015492;28;20128;-61
2023/08/21 07:41:07;;;;;;;5.97;1.63;;;;;;;-145.18;100.00;46674.06;5024609;28;20133;-61
2023/08/21 07:43:33;;;;;;;4.22;1.70;;;;;;;-145.18;100.00;46672.13;5022193;28;20510;-59
2023/08/21 07:46:02;;;;;;;7.63;1.70;;;;;;;-145.18;100.00;46666.25;5031734;28;20508;-59
2023/08/21 07:48:28;;;;;;;7.20;2.13;;;;;;;-145.18;100.00;46662.34;5024743;28;20049;-59
2023/08/21 07:50:53;;;;;;;6.53;1.90;;;;;;;-145.18;100.00;46668.22;5026133;28;20535;-59
2023/08/21 07:53:19;;;;;;;6.33;2.17;;;;;;;-145.18;100.00;46670.16;5016056;28;20034;-59
2023/08/21 07:55:45;;;;;;;12.43;2.30;;;;;;;-145.18;100.00;46670.16;5019632;28;20040;-59
2023/08/21 07:58:11;;;;;;;7.40;1.70;;;;;;;-145.18;100.00;46674.06;5027465;28;20433;-59
2023/08/21 08:00:36;;;;;;;6.10;1.60;;;;;;;-145.18;100.00;46679.94;5025506;28;20053;-59
2023/08/21 08:03:02;;;;;;;3.70;1.40;;;;;;;-145.18;100.00;46683.84;5017216;28;20026;-59
2023/08/21 08:05:27;;;;;;;7.33;2.13;;;;;;;-145.18;100.00;46668.22;5017908;28;20030;-59
2023/08/21 08:07:52;;;;;;;6.77;1.50;;;;;;;-145.18;100.00;46672.13;5030569;28;20073;-59
2023/08/21 08:10:18;;;;;;;10.43;1.60;;;;;;;-145.18;100.00;46660.41;5027315;28;20126;-59
2023/08/21 08:12:44;;;;;;;8.07;2.43;;;;;;;-145.18;100.00;46668.22;5021415;28;20033;-59
2023/08/21 08:15:10;;;;;;;5.90;1.70;;;;;;;-145.18;100.00;46670.16;5028630;28;20029;-59
2023/08/21 08:17:35;;;;;;;4.33;1.50;;;;;;;-145.18;100.00;46670.16;5020664;28;20022;-59
2023/08/21 08:20:01;;;;;;;7.27;1.87;;;;;;;-145.18;100.00;46683.84;5020350;28;20101;-59
2023/08/21 08:22:26;;;;;;;7.70;2.07;;;;;;;-145.18;100.00;46679.94;5023235;28;20045;-59
2023/08/21 08:24:52;;;;;;;4.93;1.73;;;;;;;-145.18;100.00;46679.94;5038214;28;20154;-59
2023/08/21 08:27:17;;;;;;;4.13;1.60;;;;;;;-145.18;100.00;46679.94;5033340;28;20029;-59
2023/08/21 08:29:42;;;;;;;5.13;1.63;;;;;;;-145.18;100.00;46677.97;5025437;28;20080;-59
2023/08/21 08:32:08;;;;;;;5.87;1.80;;;;;;;-145.18;100.00;46676.03;5021711;28;20041;-60
2023/08/21 08:34:33;;;;;;;5.27;1.80;;;;;;;-145.18;100.00;46672.13;5050482;28;20110;-59
2023/08/21 08:36:58;;;;;;;4.60;2.10;;;;;;;-145.18;100.00;46677.97;5034183;28;20129;-59
2023/08/21 08:39:24;;;;;;;10.33;2.00;;;;;;;-145.18;100.00;46672.13;5024835;28;20033;-59
2023/08/21 08:41:58;;;;;;;8.27;2.27;;;;;;;-145.18;100.00;46672.13;5031516;28;20124;-60
2023/08/21 08:44:28;;;;;;;6.73;2.00;;;;;;;-145.18;100.00;46672.13;5029271;28;20033;-59
2023/08/21 08:46:53;;;;;;;8.43;2.30;;;;;;;-145.18;100.00;46607.66;5031807;28;20032;-59
2023/08/21 08:49:20;;;;;;;6.53;2.13;;;;;;;-145.18;100.00;46566.63;5018440;28;20471;-59
2023/08/21 08:51:48;;;;;;;11.07;2.15;;;;;;;-145.18;100.00;46554.91;5023746;28;20108;-59
2023/08/21 08:54:15;;;;;;;7.65;2.00;;;;;;;-145.18;100.00;46547.09;5028170;28;20021;-59
2023/08/21 08:56:41;;;;;;;8.52;2.10;;;;;;;-145.18;100.00;46551.00;5028924;28;20025;-60
2023/08/21 08:59:08;;;;;;;7.65;2.05;;;;;;;-145.18;100.00;46539.28;5021103;28;20033;-60
2023/08/21 09:01:34;;;;;;;6.82;2.28;;;;;;;-145.18;100.00;46549.06;5024740;28;20029;-59
2023/08/21 09:04:00;;;;;;;5.38;2.30;;;;;;;-145.18;100.00;46552.97;5028882;28;20381;-59
2023/08/21 09:06:27;;;;;;;7.18;2.60;;;;;;;-145.18;100.00;46551.00;5040002;28;20431;-59
2023/08/21 09:08:57;;;;;;;5.07;2.50;;;;;;;-145.18;100.00;46547.09;5017889;28;20464;-59
2023/08/21 09:11:23;;;;;;;5.75;2.20;;;;;;;-145.18;100.00;46547.09;5031602;28;20052;-59
2023/08/21 09:13:53;;;;;;;6.97;2.17;;;;;;;-145.18;100.00;46549.06;5024216;28;20029;-60
2023/08/21 09:16:19;;;;;;;6.95;2.58;;;;;;;-145.18;100.00;46543.19;5031418;28;20096;-60
2023/08/21 09:18:53;;;;;;;8.20;2.40;;;;;;;-145.18;100.00;46545.16;5034416;28;20064;-59
2023/08/21 09:21:20;;;;;;;11.18;2.42;;;;;;;-145.18;100.00;46535.38;5032508;28;20060;-59
2023/08/21 09:23:46;;;;;;;8.30;2.80;;;;;;;-145.18;100.00;46556.88;5027161;28;20085;-59
2023/08/21 09:26:21;;;;;;;8.27;2.63;;;;;;;-145.18;100.00;46547.09;5032294;28;20025;-59
2023/08/21 09:28:48;;;;;;;9.93;2.75;;;;;;;-145.18;100.00;46551.00;5029952;28;20032;-60
2023/08/21 09:31:14;;;;;;;7.05;2.17;;;;;;;-145.18;100.00;46551.00;5029299;28;20033;-60
2023/08/21 09:33:40;;;;;;;7.18;2.03;;;;;;;-145.18;100.00;46543.19;5029617;28;20168;-60
2023/08/21 09:36:05;;;;;;;8.13;2.03;;;;;;;-145.18;100.00;46539.28;5028072;28;20018;-60
2023/08/21 09:38:31;;;;;;;9.23;2.47;;;;;;;-145.18;100.00;46547.09;5023401;28;20037;-60
2023/08/21 09:40:56;;;;;;;4.35;1.90;;;;;;;-145.18;100.00;46539.28;5030312;28;20049;-59
2023/08/21 09:43:23;;;;;;;3.42;1.95;;;;;;;-145.18;100.00;46543.19;5023414;28;20028;-60
2023/08/21 09:45:55;;;;;;;6.60;1.50;;;;;;;-145.18;100.00;46541.25;5032489;28;20025;-60
2023/08/21 09:48:27;;;;;;;3.85;1.45;;;;;;;-145.18;100.00;46531.47;5025401;28;20029;-59
2023/08/21 09:50:53;;;;;;;7.68;2.42;;;;;;;-145.18;100.00;46541.25;5037189;28;20088;-60
2023/08/21 09:53:22;;;;;;;5.32;1.63;;;;;;;-145.18;100.00;46541.25;5020404;28;20029;-60
2023/08/21 09:55:48;;;;;;;6.88;1.85;;;;;;;-145.18;100.00;46562.72;5032573;28;20099;-60
2023/08/21 09:58:15;;;;;;;6.60;2.05;;;;;;;-145.18;100.00;46551.00;5029132;28;20044;-60
2023/08/21 10:00:42;;;;;;;8.20;1.73;;;;;;;-145.18;100.00;47144.84;5028796;28;20029;-59
2023/08/21 10:03:10;;;;;;;5.00;0.93;;;;;;;-145.18;100.00;47066.72;5029242;28;20363;-60
2023/08/21 10:05:37;;;;;;;5.60;1.17;;;;;;;-145.18;100.00;47037.41;5028795;28;20026;-60
2023/08/21 10:08:04;;;;;;;6.25;1.48;;;;;;;-145.18;100.00;47033.50;5026875;28;20493;-59
2023/08/21 10:10:39;;;;;;;4.03;1.23;;;;;;;-145.18;100.00;47006.16;5029156;28;20064;-60
2023/08/21 10:13:06;;;;;;;3.33;0.98;;;;;;;-145.18;100.00;47000.28;5039886;28;20504;-60
2023/08/21 10:15:33;;;;;;;3.85;0.63;;;;;;;-145.18;100.00;47008.09;5028058;28;20393;-60
2023/08/21 10:18:17;;;;;;;3.35;1.00;;;;;;;-145.18;100.00;47002.25;5026618;28;20032;-60
2023/08/21 10:20:43;;;;;;;3.25;0.98;;;;;;;-145.18;100.00;46988.56;5025394;28;20022;-60
2023/08/21 10:23:08;;;;;;;3.90;0.90;;;;;;;-145.18;100.00;46986.63;5027952;28;20033;-60
2023/08/21 10:25:42;;;;;;;2.28;0.70;;;;;;;-145.18;100.00;46988.56;5030469;28;20396;-60
2023/08/21 10:28:07;;;;;;;9.23;0.98;;;;;;;-145.18;100.00;46990.53;5025859;28;20029;-60
2023/08/21 10:30:32;;;;;;;5.40;0.75;;;;;;;-145.18;100.00;46990.53;5026377;28;20549;-60
2023/08/21 10:32:59;;;;;;;3.88;1.30;;;;;;;-145.18;100.00;46984.66;5031215;28;20021;-60
2023/08/21 10:35:28;;;;;;;4.75;1.30;;;;;;;-145.18;100.00;46998.34;5023816;28;20117;-60
2023/08/21 10:38:15;;;;;;;4.13;0.90;;;;;;;-145.18;100.00;46967.09;5032789;28;20024;-60
2023/08/21 10:41:00;;;;;;;6.50;1.25;;;;;;;-145.18;100.00;46984.66;5032570;28;20045;-60
2023/08/21 10:43:43;;;;;;;5.18;1.00;;;;;;;-145.18;100.00;46982.72;5026521;28;20030;-60
2023/08/21 10:46:09;;;;;;;3.33;0.90;;;;;;;-145.18;100.00;46967.09;5028626;28;20061;-60
2023/08/21 10:48:35;;;;;;;4.43;1.38;;;;;;;-145.18;100.00;46953.41;5029076;28;20436;-60
2023/08/21 10:51:07;;;;;;;4.60;1.20;;;;;;;-145.18;100.00;46980.75;5032343;28;20030;-62
2023/08/21 10:53:33;;;;;;;5.55;1.35;;;;;;;-145.18;95.59;46961.22;5029503;28;20029;-60
2023/08/21 10:56:03;;;;;;;4.00;1.00;;;;;;;-145.18;46.94;46978.81;5023255;28;20029;-60
2023/08/21 10:58:46;;;;;;;2.63;0.80;;;;;;;-145.18;66.33;46967.09;5021544;28;20025;-60
2023/08/21 11:01:15;;;;;;;3.45;1.10;;;;;;;-145.18;100.00;46969.03;5015078;28;20025;-60
2023/08/21 11:03:41;;;;;;;4.15;1.20;;;;;;;-145.18;100.00;46965.13;5026892;28;20061;-60
2023/08/21 11:06:08;;;;;;;3.13;1.33;;;;;;;-145.18;100.00;46957.31;5024670;28;20057;-59